• Join FlightAware (Why Join?)
  • Login
  • US Flag 
05:47AM EST


 

Airport Tracker/Info


-or-


 

Live Flight TrackerFlight Track Log ✈ N789EX ✈ 15-Mar-2014 ✈ KBFI - KBFI

Flight Track Log - Related Links

Times and Time Zones

All times are in EDT time to prevent confusion due to time zone crossing. See the N789EX flight status page for this flight to view local times or setup timezone preferences in your user account.

Time Position Orientation Groundspeed Altitude Reporting Facility
EDT Latitude Longitude Course Direction KTS MPH feet Rate Location/Type
12:20PM 47.4879 -122.2620 144° Southeast 206 237 1,600  Level FlightAware ADS-B
12:20PM 47.4749 -122.2480 144° Southeast 226 260 2,000 1,800 Climbing FlightAware ADS-B
12:20PM 47.4625 -122.2350 144° Southeast 237 273 2,500 2,220 Climbing FlightAware ADS-B
12:21PM 47.4489 -122.2200 143° Southeast 247 284 3,100 2,760 Climbing FlightAware ADS-B
12:21PM 47.4371 -122.2070 143° Southeast 248 285 3,800 3,360 Climbing FlightAware ADS-B
12:21PM 47.4343 -122.2040 145° Southeast 248 285 4,000 3,960 Climbing FlightAware ADS-B
12:21PM 47.4312 -122.2010 147° Southeast 248 285 4,200 3,420 Climbing FlightAware ADS-B
12:21PM 47.4273 -122.1970 150° Southeast 246 283 4,400 3,420 Climbing FlightAware ADS-B
12:21PM 47.4243 -122.1950 153° Southeast 246 283 4,600 3,420 Climbing FlightAware ADS-B
12:21PM 47.4202 -122.1920 156° South 244 281 4,800 2,520 Climbing FlightAware ADS-B
12:21PM 47.4170 -122.1900 159° South 242 278 4,900 1,980 Climbing FlightAware ADS-B
12:21PM 47.4138 -122.1890 162° South 241 277 5,000 1,680 Climbing FlightAware ADS-B
12:21PM 47.4099 -122.1870 167° South 241 277 5,100 2,220 Climbing FlightAware ADS-B
12:21PM 47.4053 -122.1860 171° South 242 278 5,300 2,160 Climbing FlightAware ADS-B
12:22PM 47.3974 -122.1850 173° South 246 283 5,500 2,280 Climbing FlightAware ADS-B
12:22PM 47.3848 -122.1830 174° South 246 283 6,000 2,340 Climbing FlightAware ADS-B
12:22PM 47.3712 -122.1810 174° South 245 282 6,400 1,500 Climbing FlightAware ADS-B
12:22PM 47.3577 -122.1780 172° South 246 283 6,600 720 Climbing FlightAware ADS-B
12:22PM 47.3433 -122.1750 171° South 248 285 6,700 240 Climbing FlightAware ADS-B
12:22PM 47.3305 -122.1720 172° South 247 284 6,700  Level FlightAware ADS-B
12:23PM 47.3271 -122.1720 174° South 246 283 6,700  Level FlightAware ADS-B
12:23PM 47.3223 -122.1710 180° South 244 281 6,700  Level FlightAware ADS-B
12:23PM 47.3183 -122.1720 187° South 240 276 6,700  Level FlightAware ADS-B
12:23PM 47.3149 -122.1730 194° South 237 273 6,700  Level FlightAware ADS-B
12:23PM 47.3112 -122.1750 201° Southwest 234 269 6,700  Level FlightAware ADS-B
12:23PM 47.3079 -122.1780 211° Southwest 232 267 6,700  Level FlightAware ADS-B
12:23PM 47.3048 -122.1810 221° Southwest 233 268 6,700  Level FlightAware ADS-B
12:23PM 47.3021 -122.1860 231° Southwest 234 269 6,700  Level FlightAware ADS-B
12:23PM 47.2996 -122.1920 241° Southwest 236 272 6,700  Level FlightAware ADS-B
12:23PM 47.2981 -122.1980 251° West 239 275 6,700  Level FlightAware ADS-B
12:23PM 47.2972 -122.2030 258° West 241 277 6,700  Level FlightAware ADS-B
12:23PM 47.2968 -122.2090 266° West 245 282 6,700  Level FlightAware ADS-B
12:23PM 47.2967 -122.2140 269° West 247 284 6,700  Level FlightAware ADS-B
12:23PM 47.2969 -122.2230 273° West 249 287 6,700  Level FlightAware ADS-B
12:24PM 47.2982 -122.2490 274° West 251 289 6,700  Level FlightAware ADS-B
12:24PM 47.2993 -122.2720 274° West 253 291 6,700  Level FlightAware ADS-B
12:24PM 47.2997 -122.2860 271° West 251 289 6,700  Level FlightAware ADS-B
12:24PM 47.2994 -122.3030 267° West 250 288 6,700  Level FlightAware ADS-B
12:24PM 47.2988 -122.3150 265° West 249 287 6,700  Level FlightAware ADS-B
12:24PM 47.2980 -122.3230 262° West 247 284 6,700  Level FlightAware ADS-B
12:24PM 47.2970 -122.3320 259° West 246 283 6,700  Level FlightAware ADS-B
12:25PM 47.2944 -122.3520 259° West 248 285 6,700  Level FlightAware ADS-B
12:25PM 47.2917 -122.3730 259° West 247 284 6,700  Level FlightAware ADS-B
12:25PM 47.2885 -122.3980 259° West 248 285 6,700  Level FlightAware ADS-B
12:25PM 47.2851 -122.4230 259° West 247 284 6,700  Level FlightAware ADS-B
12:26PM 47.2816 -122.4490 259° West 247 284 6,700  Level FlightAware ADS-B
12:26PM 47.2784 -122.4730 259° West 239 275 6,700 180 Level FlightAware ADS-B
12:26PM 47.2751 -122.4970 259° West 232 267 6,800 1,500 Climbing FlightAware ADS-B
12:26PM 47.2719 -122.5210 258° West 232 267 7,500 2,880 Climbing FlightAware ADS-B
12:27PM 47.2686 -122.5450 259° West 234 269 8,300 2,760 Climbing FlightAware ADS-B
12:27PM 47.2652 -122.5700 259° West 237 273 9,000 2,700 Climbing FlightAware ADS-B
12:27PM 47.2619 -122.5940 259° West 242 278 9,700 2,400 Climbing FlightAware ADS-B
12:28PM 47.2541 -122.6520 259° West 252 290 11,000 1,560 Climbing FlightAware ADS-B
12:28PM 47.2497 -122.6838 259° West 290 334 11,200 720 Climbing FlightAware ADS-B (CYVR)
12:28PM 47.2460 -122.7110 259° West 295 339 11,400 1,500 Climbing FlightAware ADS-B
12:29PM 47.2375 -122.7730 259° West 320 368 12,200 1,980 Climbing FlightAware ADS-B
12:29PM 47.2286 -122.8380 259° West 328 377 13,400 2,400 Climbing FlightAware ADS-B
12:30PM 47.2194 -122.9050 258° West 334 384 14,700 2,400 Climbing FlightAware ADS-B
12:30PM 47.2098 -122.9730 258° West 338 389 15,900 2,280 Climbing FlightAware ADS-B
12:31PM 47.2024 -123.0256 259° West 345 397 17,000 2,280 Climbing FlightAware ADS-B (CYWH)
12:31PM 47.1997 -123.0450 258° West 345 397 17,100 1,920 Climbing FlightAware ADS-B
12:31PM 47.1888 -123.1230 258° West 351 404 18,200 1,680 Climbing FlightAware ADS-B
12:32PM 47.1788 -123.1940 258° West 366 421 18,900 1,620 Climbing FlightAware ADS-B
12:32PM 47.1759 -123.2143 258° West 368 423 19,200 2,400 Climbing FlightAware ADS-B (CYVR)
12:32PM 47.1675 -123.2730 258° West 367 422 20,200 2,460 Climbing FlightAware ADS-B
12:33PM 47.1662 -123.2826 258° West 365 420 20,500 1,860 Climbing FlightAware ADS-B (CYVR)
12:33PM 47.1556 -123.3570 258° West 366 421 21,300 1,320 Climbing FlightAware ADS-B
12:33PM 47.1533 -123.3730 258° West 355 409 21,300  Level FlightAware ADS-B (CYWH)
12:33PM 47.1500 -123.3930 256° West 352 405 21,300 -840 Level FlightAware ADS-B
12:34PM 47.1414 -123.4337 250° West 347 399 20,900 -900 Descending FlightAware ADS-B (CYWH)
12:34PM 47.1383 -123.4470 250° West 347 399 20,900 -2,520 Level FlightAware ADS-B
12:34PM 47.1246 -123.4977 249° West 353 406 19,500 -3,000 Descending FlightAware ADS-B (CYVR)
12:34PM 47.1181 -123.5220 249° West 352 405 19,400 -1,860 Descending FlightAware ADS-B
12:35PM 47.0955 -123.6050 248° West 347 399 18,300 -1,740 Descending FlightAware ADS-B
12:35PM 47.0928 -123.6140 246° West 343 395 18,200 -1,380 Descending FlightAware ADS-B
12:35PM 47.0889 -123.6250 240° Southwest 341 392 18,100 -1,140 Descending FlightAware ADS-B
12:35PM 47.0839 -123.6350 233° Southwest 341 392 18,000 -1,680 Descending FlightAware ADS-B
12:35PM 47.0783 -123.6450 228° Southwest 340 391 17,800 -1,800 Descending FlightAware ADS-B
12:35PM 47.0728 -123.6520 222° Southwest 341 392 17,700 -1,680 Descending FlightAware ADS-B
12:35PM 47.0658 -123.6600 215° Southwest 342 394 17,500 -2,040 Descending FlightAware ADS-B
12:35PM 47.0579 -123.6670 210° Southwest 344 396 17,300 -2,220 Descending FlightAware ADS-B
12:36PM 47.0495 -123.6730 203° Southwest 347 399 17,100 -2,040 Descending FlightAware ADS-B
12:36PM 47.0390 -123.6780 195° South 351 404 16,900 -1,500 Descending FlightAware ADS-B
12:36PM 47.0307 -123.6800 189° South 354 407 16,800 -360 Descending FlightAware ADS-B
12:36PM 46.9801 -123.6880 186° South 361 415 16,700 -120 Descending FlightAware ADS-B
12:37PM 46.9254 -123.6970 186° South 360 414 16,700  Level FlightAware ADS-B
12:37PM 46.8755 -123.7050 186° South 360 414 16,700  Level FlightAware ADS-B
12:38PM 46.8254 -123.7130 186° South 361 415 16,700 -120 Level FlightAware ADS-B
12:38PM 46.7758 -123.7210 186° South 354 407 16,600 -540 Descending FlightAware ADS-B
12:39PM 46.7283 -123.7280 186° South 334 384 16,200 -840 Descending FlightAware ADS-B
12:39PM 46.6833 -123.7360 186° South 316 364 15,800 -840 Descending FlightAware ADS-B
12:40PM 46.6405 -123.7420 186° South 299 344 15,400 -720 Descending FlightAware ADS-B
12:40PM 46.6113 -123.7470 186° South 292 336 15,200 -720 Descending FlightAware ADS-B
12:41PM 46.5727 -123.7530 186° South 288 331 14,800 -420 Descending FlightAware ADS-B
12:41PM 46.5321 -123.7600 186° South 278 320 14,800  Level FlightAware ADS-B
12:42PM 46.5196 -123.7619 186° South 276 318 14,800  Level FlightAware ADS-B
12:42PM 46.4941 -123.7660 186° South 274 315 14,800  Level FlightAware ADS-B
12:42PM 46.4546 -123.7720 186° South 282 325 14,800  Level FlightAware ADS-B
12:43PM 46.4139 -123.7790 186° South 290 334 14,800  Level FlightAware ADS-B
12:43PM 46.3943 -123.7819 187° South 310 357 14,800  Level FlightAware ADS-B
12:43PM 46.3434 -123.7900 186° South 337 388 14,800  Level FlightAware ADS-B
12:44PM 46.3340 -123.7915 186° South 353 406 14,800  Level FlightAware ADS-B
12:44PM 46.2943 -123.7970 186° South 354 407 14,800  Level FlightAware ADS-B
12:44PM 46.2660 -123.8018 186° South 353 406 14,800  Level FlightAware ADS-B
12:45PM 46.2431 -123.8050 186° South 351 404 14,800 -180 Level FlightAware ADS-B
12:45PM 46.2042 -123.8115 186° South 342 394 14,700 -240 Descending FlightAware ADS-B
12:45PM 46.1949 -123.8130 186° South 339 390 14,700 -180 Level FlightAware ADS-B
12:46PM 46.1429 -123.8207 186° South 307 353 14,600 -120 Descending FlightAware ADS-B
12:46PM 46.1086 -123.8260 186° South 319 367 14,600 -300 Level FlightAware ADS-B
12:46PM 46.0913 -123.8279 185° South 270 311 14,400 -840 Descending FlightAware ADS-B
12:47PM 46.0710 -123.8310 185° South 262 302 14,200 -1,080 Descending FlightAware ADS-B
12:47PM 46.0405 -123.8343 185° South 257 296 13,700 -1,200 Descending FlightAware ADS-B
12:47PM 46.0343 -123.8350 184° South 257 296 13,600 -1,020 Descending FlightAware ADS-B
12:48PM 45.9968 -123.8390 185° South 258 297 13,100 -900 Descending FlightAware ADS-B
12:48PM 45.9975 -123.8392 184° South 246 283 13,100 -480 Level FlightAware ADS-B
12:48PM 45.9572 -123.8422 183° South 206 237 12,800 -1,320 Descending FlightAware ADS-B
12:48PM 45.9429 -123.8430 183° South 217 250 12,000 -1,740 Descending FlightAware ADS-B
12:49PM 45.9165 -123.8461 184° South 258 297 11,700 660 Descending FlightAware ADS-B
12:49PM 45.8809 -123.8490 184° South 257 296 12,600 2,040 Climbing FlightAware ADS-B
12:50PM 45.8705 -123.8502 183° South 255 293 13,200 1,680 Climbing FlightAware ADS-B
12:50PM 45.8338 -123.8530 184° South 261 300 13,700 1,500 Climbing FlightAware ADS-B
12:50PM 45.8177 -123.8550 184° South 270 311 14,200 960 Climbing FlightAware ADS-B
12:51PM 45.7956 -123.8580 184° South 271 312 14,200 -780 Level FlightAware ADS-B
12:51PM 45.7685 -123.8605 184° South 263 303 13,700 -1,260 Descending FlightAware ADS-B
12:52PM 45.7186 -123.8654 184° South 259 298 12,900 -720 Descending FlightAware ADS-B
12:52PM 45.6750 -123.8686 182° South 216 249 12,800 -1,620 Descending FlightAware ADS-B
12:53PM 45.6371 -123.8696 183° South 231 266 10,700 -1,140 Descending FlightAware ADS-B
12:54PM 45.5878 -123.8731 182° South 282 325 11,300 1,980 Climbing FlightAware ADS-B
12:55PM 45.5121 -123.8818 194° South 284 327 14,000 1,740 Climbing FlightAware ADS-B
12:55PM 45.4541 -123.9033 195° South 292 336 14,200 120 Climbing FlightAware ADS-B
12:56PM 45.4236 -123.9149 195° South 286 329 14,200 -120 Level FlightAware ADS-B
12:57PM 45.3358 -123.9496 196° South 274 315 14,100 -360 Descending FlightAware ADS-B
12:57PM 45.2965 -123.9659 197° South 253 291 13,800 -960 Descending FlightAware ADS-B
12:58PM 45.2586 -123.9822 197° South 251 289 13,100 -1,260 Descending FlightAware ADS-B
12:59PM 45.2239 -123.9967 196° South 245 282 12,500 -300 Descending FlightAware ADS-B
12:59PM 45.1869 -124.0128 196° South 244 281 12,800 60 Climbing Seattle Center
01:05PM 45.3126 -124.1137 39° Northeast 310 357 13,300 -120 Climbing FlightAware ADS-B
01:06PM 45.3551 -124.0653 38° Northeast 278 320 12,300 -2,820 Descending FlightAware ADS-B
01:07PM 45.3835 -124.0333 38° Northeast 295 339 9,900 -180 Descending FlightAware ADS-B
01:08PM 45.4730 -123.9514 24° Northeast 325 374 12,000 1,920 Climbing FlightAware ADS-B
01:08PM 45.5139 -123.9298 14° North 330 380 13,300 2,220 Climbing FlightAware ADS-B
01:09PM 45.5624 -123.9130 13° North 329 379 14,300 2,160 Climbing FlightAware ADS-B
01:09PM 45.5797 -123.9100 North 324 373 14,700 1,980 Climbing FlightAware ADS-B
01:09PM 45.5853 -123.9110 356° North 320 368 14,800 1,380 Climbing FlightAware ADS-B
01:09PM 45.5983 -123.9140 344° North 309 356 15,000 1,260 Climbing FlightAware ADS-B
01:09PM 45.6038 -123.9170 339° North 306 352 15,100 960 Climbing FlightAware ADS-B
01:09PM 45.6135 -123.9250 329° Northwest 298 343 15,200 600 Climbing FlightAware ADS-B
01:09PM 45.6150 -123.9268 323° Northwest 295 339 15,200 1,500 Level FlightAware ADS-B
01:09PM 45.6177 -123.9300 322° Northwest 295 339 15,300 660 Climbing FlightAware ADS-B
01:09PM 45.6244 -123.9400 312° West 292 336 15,300 660 Level FlightAware ADS-B
01:10PM 45.6221 -123.9359 297° West 287 330 15,500 1,260 Climbing FlightAware ADS-B
01:10PM 45.6364 -123.9790 299° West 289 333 15,800 1,320 Climbing FlightAware ADS-B
01:10PM 45.6368 -123.9879 269° West 278 320 15,900 -1,800 Climbing FlightAware ADS-B
01:11PM 45.6239 -124.1190 260° West 240 276 13,200 -1,740 Descending FlightAware ADS-B
01:12PM 45.6193 -124.1548 259° West 198 228 12,500 -180 Descending FlightAware ADS-B
01:15PM 45.5079 -124.2876 156° South 305 351 12,700 600 Climbing FlightAware ADS-B
01:16PM 45.4207 -124.2334 157° South 293 337 15,000 120 Climbing FlightAware ADS-B
01:17PM 45.3533 -124.1915 155° Southeast 275 316 13,100 -1,680 Descending FlightAware ADS-B
01:18PM 45.3014 -124.1567 154° Southeast 267 307 12,200 -1,140 Descending FlightAware ADS-B
01:18PM 45.2597 -124.1268 152° Southeast 217 250 11,700 -1,980 Descending FlightAware ADS-B
01:19PM 45.2238 -124.1009 155° Southeast 239 275 9,300 420 Descending FlightAware ADS-B
01:22PM 45.1612 -123.8870 13° North 302 348 13,400 1,320 Climbing FlightAware ADS-B
01:22PM 45.1771 -123.8841 North 299 344 13,900 2,220 Climbing FlightAware ADS-B
01:23PM 45.2094 -123.8800 North 296 341 14,700 1,320 Climbing FlightAware ADS-B
01:23PM 45.2223 -123.8781 North 292 336 14,700 60 Level FlightAware ADS-B
01:24PM 45.2806 -123.8715 North 298 343 14,800 -660 Climbing FlightAware ADS-B
01:24PM 45.3368 -123.8651 North 291 335 13,800 -1,320 Descending FlightAware ADS-B
01:25PM 45.4080 -123.8552 North 239 275 12,700 -2,280 Descending FlightAware ADS-B
01:26PM 45.4550 -123.8499 North 295 339 10,100 -840 Descending FlightAware ADS-B
01:27PM 45.5142 -123.8480 North 279 321 11,600 1,800 Climbing FlightAware ADS-B
01:27PM 45.5525 -123.8470 North 283 326 12,300 1,620 Climbing FlightAware ADS-B
01:27PM 45.5585 -123.8473 359° North 288 331 12,700 2,340 Climbing FlightAware ADS-B
01:28PM 45.5891 -123.8480 359° North 288 331 13,400 2,760 Climbing FlightAware ADS-B
01:28PM 45.6003 -123.8480 North 283 326 13,900 3,840 Climbing FlightAware ADS-B
01:28PM 45.6061 -123.8478 North 279 321 14,300 1,680 Climbing FlightAware ADS-B
01:28PM 45.6422 -123.8470 North 274 315 14,800 480 Climbing FlightAware ADS-B
01:29PM 45.6492 -123.8465 North 279 321 14,700 -120 Descending FlightAware ADS-B
01:29PM 45.7193 -123.8380 24° Northeast 320 368 14,700  Level FlightAware ADS-B
01:29PM 45.7227 -123.8356 30° Northeast 325 374 14,700  Level FlightAware ADS-B
01:29PM 45.7244 -123.8340 31° Northeast 327 376 14,700  Level FlightAware ADS-B
01:29PM 45.7314 -123.8260 40° Northeast 336 387 14,700  Level FlightAware ADS-B
01:30PM 45.7382 -123.8140 54° Northeast 346 398 14,700  Level FlightAware ADS-B
01:30PM 45.7406 -123.8080 59° Northeast 348 400 14,700  Level FlightAware ADS-B
01:30PM 45.7448 -123.7930 72° East 352 405 14,700  Level FlightAware ADS-B
01:30PM 45.7468 -123.7760 84° East 353 406 14,700  Level FlightAware ADS-B
01:30PM 45.7466 -123.7620 94° East 353 406 14,700  Level FlightAware ADS-B
01:30PM 45.7395 -123.8107 103° East 352 405 14,700  Level FlightAware ADS-B
01:30PM 45.7445 -123.7490 104° East 352 405 14,700  Level FlightAware ADS-B
01:30PM 45.7399 -123.7340 116° Southeast 348 400 14,700  Level FlightAware ADS-B
01:30PM 45.7321 -123.7190 129° Southeast 344 396 14,700  Level FlightAware ADS-B
01:30PM 45.7312 -123.7173 136° Southeast 340 391 14,700  Level FlightAware ADS-B
01:30PM 45.7252 -123.7100 141° Southeast 337 388 14,700  Level FlightAware ADS-B
01:31PM 45.7181 -123.7040 152° Southeast 331 381 14,700  Level FlightAware ADS-B
01:31PM 45.7096 -123.7000 163° South 324 373 14,700  Level FlightAware ADS-B
01:31PM 45.7026 -123.6980 172° South 319 367 14,700  Level FlightAware ADS-B
01:31PM 45.6602 -123.6980 181° South 309 356 14,700  Level FlightAware ADS-B
01:31PM 45.6504 -123.6986 182° South 295 339 14,700 -180 Level FlightAware ADS-B
01:32PM 45.6007 -123.7006 181° South 265 305 14,600 -720 Descending FlightAware ADS-B
01:33PM 45.5560 -123.7020 181° South 261 300 13,900 -1,380 Descending FlightAware ADS-B
01:33PM 45.5502 -123.7016 181° South 259 298 13,700 -1,500 Descending FlightAware ADS-B
01:33PM 45.5419 -123.7020 184° South 258 297 13,600 -1,620 Descending FlightAware ADS-B
01:33PM 45.5275 -123.7110 217° Southwest 243 280 13,200 -1,320 Descending FlightAware ADS-B
01:33PM 45.5218 -123.7220 237° Southwest 234 269 13,100 -300 Descending FlightAware ADS-B
01:33PM 45.5209 -123.7414 283° West 223 257 13,100 -360 Level FlightAware ADS-B
01:33PM 45.5229 -123.7480 252° West 229 264 13,000 -1,140 Descending FlightAware ADS-B
01:34PM 45.5268 -123.7560 307° West 224 258 12,900 -1,320 Descending FlightAware ADS-B
01:34PM 45.5252 -123.7533 335° Northwest 228 262 12,700 -2,520 Descending FlightAware ADS-B
01:34PM 45.5812 -123.7889 338° Northwest 306 352 10,900  Descending FlightAware ADS-B
01:35PM 45.6534 -123.8290 339° North 302 348 12,700 1,980 Climbing FlightAware ADS-B
01:36PM 45.6892 -123.8489 340° North 296 341 13,700 2,340 Climbing FlightAware ADS-B
01:36PM 45.7092 -123.8590 339° North 300 345 14,400 900 Climbing FlightAware ADS-B
01:36PM 45.7365 -123.8730 339° North 273 314 14,300 -300 Descending FlightAware ADS-B
01:36PM 45.7372 -123.8739 337° Northwest 271 312 14,300 -2,940 Level FlightAware ADS-B
01:37PM 45.7714 -123.8974 338° Northwest 270 311 12,600 -2,580 Descending FlightAware ADS-B
01:37PM 45.8084 -123.9022 22° Northeast 286 329 11,700 -2,400 Descending FlightAware ADS-B
01:38PM 45.8226 -123.8845 60° Northeast 275 316 10,900 -4,080 Descending FlightAware ADS-B
01:38PM 45.8337 -123.8473 69° East 296 341 9,200 -2,520 Descending FlightAware ADS-B
01:38PM 45.8419 -123.8154 70° East 326 375 9,200 1,140 Level FlightAware ADS-B
01:39PM 45.8564 -123.7581 70° East 325 374 10,000 1,980 Climbing FlightAware ADS-B
01:39PM 45.8616 -123.7370 71° East 325 374 10,300 1,800 Climbing FlightAware ADS-B
01:39PM 45.8642 -123.7178 85° East 329 379 10,600 2,160 Climbing FlightAware ADS-B
01:39PM 45.8616 -123.6880 105° East 326 375 11,100 2,400 Climbing FlightAware ADS-B
01:39PM 45.8583 -123.6775 120° Southeast 317 365 11,400 2,700 Climbing FlightAware ADS-B
01:39PM 45.8540 -123.6680 125° Southeast 314 361 11,600 2,400 Climbing FlightAware ADS-B
01:40PM 45.8485 -123.6600 136° Southeast 308 354 11,800 2,460 Climbing FlightAware ADS-B
01:40PM 45.8416 -123.6530 147° Southeast 302 348 12,100 2,400 Climbing FlightAware ADS-B
01:40PM 45.8370 -123.6494 156° South 297 342 12,200 1,980 Climbing FlightAware ADS-B
01:40PM 45.8344 -123.6480 158° South 296 341 12,300 2,520 Climbing FlightAware ADS-B
01:40PM 45.8274 -123.6450 163° South 294 338 12,500 2,160 Climbing FlightAware ADS-B
01:40PM 45.8009 -123.6340 168° South 297 342 13,200 2,400 Climbing FlightAware ADS-B
01:40PM 45.7943 -123.6330 177° South 288 331 13,500 3,300 Climbing FlightAware ADS-B
01:40PM 45.7898 -123.6340 183° South 284 327 13,700 3,000 Climbing FlightAware ADS-B
01:40PM 45.7836 -123.6346 189° South 280 322 13,900 1,980 Climbing FlightAware ADS-B
01:41PM 45.7504 -123.6430 190° South 295 339 14,700 1,200 Climbing FlightAware ADS-B
01:41PM 45.7358 -123.6464 190° South 297 342 14,700  Level FlightAware ADS-B
01:41PM 45.7097 -123.6530 190° South 294 338 14,700  Level FlightAware ADS-B
01:42PM 45.6861 -123.6590 190° South 294 338 14,700  Level FlightAware ADS-B
01:42PM 45.6634 -123.6650 190° South 294 338 14,700 660 Level FlightAware ADS-B
01:42PM 45.6420 -123.6740 204° Southwest 277 319 15,000 840 Climbing FlightAware ADS-B
01:42PM 45.6386 -123.6770 212° Southwest 274 315 15,000 900 Level FlightAware ADS-B
01:42PM 45.6302 -123.6883 233° Southwest 269 310 15,200 1,080 Climbing FlightAware ADS-B
01:42PM 45.6292 -123.6900 235° Southwest 269 310 15,200 1,200 Level FlightAware ADS-B
01:42PM 45.6266 -123.6980 244° Southwest 269 310 15,300 1,200 Climbing FlightAware ADS-B
01:43PM 45.6247 -123.7080 258° West 270 311 15,400 1,080 Climbing FlightAware ADS-B
01:43PM 45.6245 -123.7170 267° West 272 313 15,500 1,500 Climbing FlightAware ADS-B
01:43PM 45.6245 -123.7162 275° West 274 315 15,600 1,500 Climbing FlightAware ADS-B
01:43PM 45.6251 -123.7240 277° West 275 316 15,600 1,380 Level FlightAware ADS-B
01:43PM 45.6281 -123.7460 279° West 279 321 15,900 1,260 Climbing FlightAware ADS-B
01:43PM 45.6305 -123.7650 283° West 286 329 16,100 1,080 Climbing FlightAware ADS-B
01:43PM 45.6325 -123.7740 289° West 292 336 16,200 600 Climbing FlightAware ADS-B
01:43PM 45.6353 -123.7830 296° West 300 345 16,200  Level FlightAware ADS-B
01:43PM 45.6402 -123.7940 304° West 311 358 16,200  Level FlightAware ADS-B
01:43PM 45.6462 -123.8040 314° West 327 376 16,200 -420 Level FlightAware ADS-B
01:44PM 45.6579 -123.8160 326° Northwest 348 400 16,100 -1,020 Descending FlightAware ADS-B
01:44PM 45.6627 -123.8190 334° Northwest 358 412 16,000 -1,200 Descending FlightAware ADS-B
01:44PM 45.6736 -123.8240 344° North 370 426 15,900 -900 Descending FlightAware ADS-B
01:44PM 45.6858 -123.8260 355° North 381 438 15,800 -1,020 Descending FlightAware ADS-B
01:44PM 45.6944 -123.8260 North 388 447 15,700 -900 Descending FlightAware ADS-B
01:44PM 45.6908 -123.8264 North 391 450 15,700  Level FlightAware ADS-B
01:44PM 45.7280 -123.8090 26° Northeast 406 467 15,700  Level FlightAware ADS-B
01:44PM 45.7291 -123.8083 26° Northeast 407 468 15,700  Level FlightAware ADS-B
01:45PM 45.7786 -123.7720 28° Northeast 402 463 15,700  Level FlightAware ADS-B
01:45PM 45.8291 -123.7340 27° Northeast 399 459 15,700  Level FlightAware ADS-B
01:45PM 45.8265 -123.7362 27° Northeast 399 459 15,700  Level FlightAware ADS-B
01:46PM 45.8797 -123.6980 27° Northeast 398 458 15,700  Level FlightAware ADS-B
01:46PM 45.8969 -123.6854 27° Northeast 398 458 15,700  Level FlightAware ADS-B
01:46PM 45.9299 -123.6620 26° Northeast 398 458 15,700  Level FlightAware ADS-B
01:47PM 45.9592 -123.6410 26° Northeast 398 458 15,700  Level FlightAware ADS-B
01:47PM 45.9797 -123.6270 26° Northeast 399 459 15,700  Level FlightAware ADS-B
01:47PM 46.0297 -123.5910 26° Northeast 400 460 15,700  Level FlightAware ADS-B
01:48PM 46.0798 -123.5550 27° Northeast 401 461 15,700  Level FlightAware ADS-B
01:48PM 46.1298 -123.5190 27° Northeast 404 465 15,700  Level FlightAware ADS-B
01:49PM 46.1806 -123.4830 27° Northeast 405 466 15,700  Level FlightAware ADS-B
01:49PM 46.2312 -123.4460 27° Northeast 405 466 15,700  Level FlightAware ADS-B
01:50PM 46.2817 -123.4090 27° Northeast 406 467 15,700  Level FlightAware ADS-B
01:50PM 46.3324 -123.3730 27° Northeast 405 466 15,700  Level FlightAware ADS-B
01:51PM 46.3832 -123.3360 27° Northeast 404 465 15,700  Level FlightAware ADS-B
01:51PM 46.4336 -123.2990 27° Northeast 403 464 15,700  Level FlightAware ADS-B
01:52PM 46.4847 -123.2620 27° Northeast 402 463 15,700  Level FlightAware ADS-B
01:52PM 46.5356 -123.2240 27° Northeast 407 468 15,700  Level FlightAware ADS-B
01:53PM 46.5867 -123.1840 30° Northeast 418 481 15,700  Level FlightAware ADS-B
01:53PM 46.6126 -123.1610 32° Northeast 423 487 15,700  Level FlightAware ADS-B
01:54PM 46.6619 -123.1150 33° Northeast 423 487 15,700  Level FlightAware ADS-B
01:54PM 46.7126 -123.0670 33° Northeast 420 483 15,700  Level FlightAware ADS-B
01:55PM 46.7616 -123.0210 33° Northeast 422 486 15,700 -240 Level FlightAware ADS-B
01:55PM 46.8112 -122.9740 33° Northeast 422 486 15,500 -1,020 Descending FlightAware ADS-B
01:56PM 46.8609 -122.9270 33° Northeast 420 483 14,700 -1,740 Descending FlightAware ADS-B
01:56PM 46.9096 -122.8810 33° Northeast 411 473 13,800 -1,380 Descending FlightAware ADS-B
01:57PM 46.9573 -122.8350 33° Northeast 400 460 13,300 -840 Descending FlightAware ADS-B
01:57PM 47.0031 -122.7910 33° Northeast 376 433 13,000 -540 Descending FlightAware ADS-B
01:58PM 47.0459 -122.7510 33° Northeast 359 413 12,800 -540 Descending FlightAware ADS-B
01:58PM 47.0878 -122.7110 33° Northeast 354 407 12,500 -600 Descending FlightAware ADS-B
01:59PM 47.1288 -122.6710 33° Northeast 353 406 12,200 -720 Descending FlightAware ADS-B
01:59PM 47.1452 -122.6556 33° Northeast 354 407 12,000 -1,020 Descending FlightAware ADS-B (CYVR)
01:59PM 47.1701 -122.6320 33° Northeast 347 399 11,700 -1,020 Descending FlightAware ADS-B
02:00PM 47.2088 -122.5940 34° Northeast 336 387 11,200 -1,020 Descending FlightAware ADS-B
02:00PM 47.2367 -122.5630 40° Northeast 333 383 10,800 -1,140 Descending FlightAware ADS-B
02:01PM 47.2721 -122.5170 41° Northeast 327 376 10,200 -1,140 Descending FlightAware ADS-B
02:01PM 47.2915 -122.4920 41° Northeast 324 373 9,900 -1,320 Descending FlightAware ADS-B
02:01PM 47.3075 -122.4720 40° Northeast 323 372 9,500 -1,800 Descending FlightAware ADS-B
02:01PM 47.3116 -122.4670 36° Northeast 321 369 9,400 -1,740 Descending FlightAware ADS-B
02:01PM 47.3164 -122.4630 30° Northeast 319 367 9,300 -1,500 Descending FlightAware ADS-B
02:01PM 47.3214 -122.4590 25° Northeast 317 365 9,200 -780 Descending FlightAware ADS-B
02:01PM 47.3266 -122.4570 18° North 312 359 9,200 -900 Level FlightAware ADS-B
02:01PM 47.3316 -122.4550 12° North 308 354 9,100 -1,020 Descending FlightAware ADS-B
02:02PM 47.3358 -122.4540 North 305 351 9,100 -1,140 Level FlightAware ADS-B
02:02PM 47.3540 -122.4510 North 298 343 8,800 -1,260 Descending FlightAware ADS-B
02:02PM 47.3759 -122.4490 North 297 342 8,500 -1,380 Descending FlightAware ADS-B
02:02PM 47.3964 -122.4460 North 294 338 8,100 -1,800 Descending FlightAware ADS-B
02:02PM 47.4169 -122.4440 North 294 338 7,600 -1,920 Descending FlightAware ADS-B
02:03PM 47.4354 -122.4420 North 294 338 7,200 -1,920 Descending FlightAware ADS-B
02:03PM 47.4554 -122.4410 North 291 335 6,700 -1,920 Descending FlightAware ADS-B
02:03PM 47.4746 -122.4390 North 287 330 6,300 -1,980 Descending FlightAware ADS-B
02:03PM 47.4961 -122.4370 North 284 327 5,700 -2,280 Descending FlightAware ADS-B
02:04PM 47.5095 -122.4360 North 285 328 5,300 -2,520 Descending FlightAware ADS-B
02:04PM 47.5189 -122.4350 North 285 328 5,000 -2,700 Descending FlightAware ADS-B
02:04PM 47.5336 -122.4350 North 289 333 4,500 -2,640 Descending FlightAware ADS-B
02:04PM 47.5403 -122.4350 359° North 290 334 4,300 -2,700 Descending FlightAware ADS-B
02:04PM 47.5459 -122.4350 356° North 289 333 4,100 -2,280 Descending FlightAware ADS-B
02:04PM 47.5514 -122.4360 351° North 284 327 4,000 -1,800 Descending FlightAware ADS-B
02:04PM 47.5582 -122.4390 344° North 279 321 3,800 -1,200 Descending FlightAware ADS-B
02:04PM 47.5627 -122.4410 340° North 273 314 3,800  Level FlightAware ADS-B
02:04PM 47.5697 -122.4450 336° Northwest 263 303 3,800 -540 Level FlightAware ADS-B
02:05PM 47.5768 -122.4500 335° Northwest 259 298 3,700 -300 Descending FlightAware ADS-B
02:05PM 47.5941 -122.4630 334° Northwest 246 283 3,700  Level FlightAware ADS-B
02:05PM 47.6092 -122.4740 334° Northwest 231 266 3,700  Level FlightAware ADS-B
02:05PM 47.6239 -122.4840 334° Northwest 230 265 3,700  Level FlightAware ADS-B
02:06PM 47.6384 -122.4950 334° Northwest 231 266 3,700  Level FlightAware ADS-B
02:06PM 47.6539 -122.5070 333° Northwest 232 267 3,700  Level FlightAware ADS-B
02:06PM 47.6651 -122.5150 334° Northwest 234 269 3,700 -360 Level FlightAware ADS-B
02:06PM 47.6709 -122.5190 337° Northwest 236 272 3,600 -1,140 Descending FlightAware ADS-B
02:06PM 47.6767 -122.5210 347° North 239 275 3,500 -1,020 Descending FlightAware ADS-B
02:06PM 47.6846 -122.5210 North 242 278 3,400 -900 Descending FlightAware ADS-B
02:06PM 47.6917 -122.5180 North 242 278 3,300 -1,140 Descending FlightAware ADS-B
02:07PM 47.6962 -122.5140 33° Northeast 240 276 3,200 -1,380 Descending FlightAware ADS-B
02:07PM 47.6996 -122.5100 41° Northeast 238 274 3,100 -780 Descending FlightAware ADS-B
02:07PM 47.7024 -122.5060 47° Northeast 236 272 3,100 -600 Level FlightAware ADS-B
02:07PM 47.7081 -122.4960 51° Northeast 233 268 3,000 -1,140 Descending FlightAware ADS-B
02:07PM 47.7133 -122.4860 54° Northeast 232 267 2,800 -1,020 Descending FlightAware ADS-B
02:07PM 47.7155 -122.4810 58° Northeast 230 265 2,800 -900 Level FlightAware ADS-B
02:07PM 47.7169 -122.4760 64° Northeast 229 264 2,700 -1,200 Descending FlightAware ADS-B
02:07PM 47.7183 -122.4600 81° East 220 253 2,500 -1,020 Descending FlightAware ADS-B
02:07PM 47.7167 -122.4520 109° East 204 235 2,400 -1,380 Descending FlightAware ADS-B
02:07PM 47.7150 -122.4470 121° Southeast 198 228 2,300 -900 Descending FlightAware ADS-B
02:08PM 47.7078 -122.4390 155° Southeast 183 211 2,200 -840 Descending FlightAware ADS-B
02:08PM 47.6928 -122.4370 162° South 181 208 1,900 -540 Descending FlightAware ADS-B
02:08PM 47.6805 -122.4290 153° Southeast 180 207 1,900  Level FlightAware ADS-B
02:09PM 47.6652 -122.4170 153° Southeast 181 208 1,900  Level FlightAware ADS-B
02:09PM 47.6524 -122.4070 150° Southeast 181 208 1,900  Level FlightAware ADS-B
02:09PM 47.6412 -122.3970 150° Southeast 164 189 1,900 -240 Level FlightAware ADS-B
02:09PM 47.6305 -122.3880 150° Southeast 163 188 1,800 -420 Descending FlightAware ADS-B
02:10PM 47.6222 -122.3800 150° Southeast 163 188 1,700 -900 Descending FlightAware ADS-B
02:10PM 47.6085 -122.3690 150° Southeast 162 186 1,300 -1,020 Descending FlightAware ADS-B
02:10PM 47.5991 -122.3610 150° Southeast 151 174 1,100 -900 Descending FlightAware ADS-B
02:10PM 47.5877 -122.3510 150° Southeast 152 175 800 -600 Descending FlightAware ADS-B
02:11PM 47.5603 -122.3300 150° Southeast 161 185 500 -600 Descending Seattle Center
02:11PM 47.5547 -122.3239 143° Southeast 156 180 300 13,440 Descending Seattle Center
02:12PM 47.5175 -122.2922 150° Southeast 156 180 16,000 15,420 Climbing Seattle Center
02:14PM 47.5300 -122.3020 234° Southwest  Level Estimated